createdAt,value
2022-08-01T00:00:15.786Z,18.50
2022-08-01T00:02:42.991Z,18.50
2022-08-01T00:05:12.007Z,18.40
2022-08-01T00:07:39.694Z,18.50
2022-08-01T00:10:10.739Z,18.50
2022-08-01T00:12:37.804Z,18.40
2022-08-01T00:15:06.608Z,18.40
2022-08-01T00:17:33.822Z,18.40
2022-08-01T00:20:01.206Z,18.30
2022-08-01T00:22:28.227Z,18.30
2022-08-01T00:24:55.145Z,18.10
2022-08-01T00:27:22.141Z,18.20
2022-08-01T00:30:10.686Z,18.10
2022-08-01T00:32:36.202Z,18.10
2022-08-01T00:35:03.161Z,18.20
2022-08-01T00:37:30.226Z,18.10
2022-08-01T00:39:57.191Z,18.10
2022-08-01T00:42:24.236Z,18.00
2022-08-01T00:44:51.214Z,18.00
2022-08-01T00:47:18.359Z,18.00
2022-08-01T00:49:45.466Z,17.80
2022-08-01T00:52:12.708Z,17.80
2022-08-01T00:54:40.459Z,17.80
2022-08-01T00:57:10.174Z,17.80
2022-08-01T00:59:40.011Z,17.80
2022-08-01T01:02:08.552Z,17.80
2022-08-01T01:04:46.581Z,17.70
2022-08-01T01:07:17.960Z,17.60
2022-08-01T01:10:01.326Z,17.60
2022-08-01T01:12:38.496Z,17.50
2022-08-01T01:15:16.689Z,17.50
2022-08-01T01:18:03.017Z,17.40
2022-08-01T01:20:38.032Z,17.40
2022-08-01T01:23:41.171Z,17.30
2022-08-01T01:26:23.255Z,17.30
2022-08-01T01:29:08.859Z,17.40
2022-08-01T01:31:45.633Z,17.30
2022-08-01T01:34:14.403Z,17.30
2022-08-01T01:36:42.937Z,17.30
2022-08-01T01:39:10.292Z,17.30
2022-08-01T01:41:39.762Z,17.30
2022-08-01T01:44:07.634Z,17.30
2022-08-01T01:46:36.691Z,17.20
2022-08-01T01:49:04.444Z,17.10
2022-08-01T01:51:32.687Z,17.10
2022-08-01T01:54:02.156Z,17.10
2022-08-01T01:56:31.138Z,17.10
2022-08-01T01:59:02.386Z,17.00
2022-08-01T02:01:58.119Z,17.00
2022-08-01T02:04:21.037Z,16.90
2022-08-01T02:06:50.169Z,16.90
2022-08-01T02:09:22.525Z,16.90
2022-08-01T02:12:07.323Z,16.90
2022-08-01T02:14:36.855Z,16.90
2022-08-01T02:17:08.505Z,16.90
2022-08-01T02:19:38.522Z,16.90
2022-08-01T02:22:36.792Z,16.80
2022-08-01T02:25:12.281Z,16.80
2022-08-01T02:27:46.755Z,16.80
2022-08-01T02:30:15.223Z,16.90
2022-08-01T02:32:52.419Z,16.90
2022-08-01T02:35:27.920Z,17.00
2022-08-01T02:37:57.913Z,17.00
2022-08-01T02:40:27.598Z,17.00
2022-08-01T02:42:58.080Z,16.90
2022-08-01T02:45:27.568Z,16.80
2022-08-01T02:48:00.193Z,16.80
2022-08-01T02:50:29.497Z,16.80
2022-08-01T02:52:58.358Z,16.70
2022-08-01T02:55:26.625Z,16.70
2022-08-01T02:57:58.435Z,16.70
2022-08-01T03:00:30.732Z,16.70
2022-08-01T03:03:00.371Z,16.80
2022-08-01T03:05:28.238Z,16.80
2022-08-01T03:08:02.585Z,16.80
2022-08-01T03:10:33.064Z,16.80
2022-08-01T03:13:02.199Z,16.70
2022-08-01T03:15:33.434Z,16.60
2022-08-01T03:18:02.290Z,16.60
2022-08-01T03:20:30.653Z,16.60
2022-08-01T03:22:59.887Z,16.50
2022-08-01T03:25:28.419Z,16.50
2022-08-01T03:28:02.608Z,16.40
2022-08-01T03:30:32.117Z,16.40
2022-08-01T03:32:59.756Z,16.50
2022-08-01T03:35:49.609Z,16.40
2022-08-01T03:38:22.207Z,16.40
2022-08-01T03:40:54.307Z,16.40
2022-08-01T03:43:34.318Z,16.50
2022-08-01T03:46:09.128Z,16.50
2022-08-01T03:48:41.740Z,16.50
2022-08-01T03:51:09.930Z,16.40
2022-08-01T03:53:40.776Z,16.30
2022-08-01T03:56:11.296Z,16.30
2022-08-01T03:58:40.796Z,16.40
2022-08-01T04:01:15.549Z,16.30
2022-08-01T04:03:44.329Z,16.30
2022-08-01T04:06:11.741Z,16.30
2022-08-01T04:08:40.189Z,16.20
2022-08-01T04:11:09.582Z,16.20
2022-08-01T04:13:38.546Z,16.30
2022-08-01T04:16:05.967Z,16.30
2022-08-01T04:18:33.302Z,16.30
2022-08-01T04:21:00.403Z,16.30
2022-08-01T04:23:33.844Z,16.40
2022-08-01T04:26:05.151Z,16.30
2022-08-01T04:28:35.877Z,16.30
2022-08-01T04:31:05.814Z,16.40
2022-08-01T04:33:37.565Z,16.30
2022-08-01T04:36:07.177Z,16.30
2022-08-01T04:38:37.842Z,16.20
2022-08-01T04:41:08.723Z,16.20
2022-08-01T04:43:40.569Z,16.30
2022-08-01T04:46:08.666Z,16.30
2022-08-01T04:48:39.549Z,16.40
2022-08-01T04:51:16.940Z,16.40
2022-08-01T04:53:45.137Z,16.50
2022-08-01T04:56:14.212Z,16.60
2022-08-01T04:58:42.210Z,16.70
2022-08-01T05:01:10.346Z,16.80
2022-08-01T05:03:39.147Z,16.80
2022-08-01T05:06:06.675Z,16.90
2022-08-01T05:08:33.834Z,17.00
2022-08-01T05:11:02.321Z,17.10
2022-08-01T05:13:29.380Z,17.30
2022-08-01T05:15:56.558Z,17.40
2022-08-01T05:18:26.230Z,17.50
2022-08-01T05:20:56.040Z,17.50
2022-08-01T05:23:42.634Z,17.60
2022-08-01T05:26:11.192Z,17.60
2022-08-01T05:28:38.163Z,17.60
2022-08-01T05:31:05.561Z,17.60
2022-08-01T05:33:32.593Z,17.60
2022-08-01T05:36:01.311Z,17.60
2022-08-01T05:38:28.290Z,17.60
2022-08-01T05:40:55.284Z,17.60
2022-08-01T05:43:26.783Z,17.60
2022-08-01T05:45:55.795Z,17.60
2022-08-01T05:48:22.823Z,17.60
2022-08-01T05:50:52.190Z,17.60
2022-08-01T05:53:21.039Z,17.60
2022-08-01T05:55:48.123Z,17.60
2022-08-01T05:58:15.260Z,17.60
2022-08-01T06:00:42.343Z,17.60
2022-08-01T06:03:09.660Z,17.60
2022-08-01T06:05:36.861Z,17.70
2022-08-01T06:08:04.552Z,17.70
2022-08-01T06:10:31.566Z,17.70
2022-08-01T06:12:58.960Z,17.80
2022-08-01T06:15:26.260Z,17.90
2022-08-01T06:17:53.368Z,18.00
2022-08-01T06:20:20.668Z,18.00
2022-08-01T06:22:52.450Z,18.10
2022-08-01T06:25:21.377Z,18.10
2022-08-01T06:27:49.130Z,18.10
2022-08-01T06:30:22.624Z,18.20
2022-08-01T06:32:50.403Z,18.20
2022-08-01T06:35:23.090Z,18.30
2022-08-01T06:37:52.825Z,18.30
2022-08-01T06:40:20.690Z,18.30
2022-08-01T06:42:56.797Z,18.30
2022-08-01T06:45:28.310Z,18.40
2022-08-01T06:48:04.107Z,18.30
2022-08-01T06:50:37.730Z,18.30
2022-08-01T06:53:11.945Z,18.40
2022-08-01T06:55:42.794Z,18.40
2022-08-01T06:58:15.897Z,18.40
2022-08-01T07:00:52.596Z,18.40
2022-08-01T07:03:27.739Z,18.40
2022-08-01T07:06:18.180Z,18.50
2022-08-01T07:08:54.448Z,18.50
2022-08-01T07:11:27.777Z,18.60
2022-08-01T07:13:57.554Z,18.70
2022-08-01T07:16:30.857Z,18.80
2022-08-01T07:18:57.950Z,18.90
2022-08-01T07:21:40.613Z,18.90
2022-08-01T07:24:14.492Z,19.00
2022-08-01T07:26:53.571Z,19.00
2022-08-01T07:29:28.141Z,19.20
2022-08-01T07:31:56.782Z,19.30
2022-08-01T07:34:24.613Z,19.40
2022-08-01T07:36:52.494Z,19.40
2022-08-01T07:39:20.065Z,19.50
2022-08-01T07:42:06.159Z,19.60
2022-08-01T07:44:33.997Z,19.70
2022-08-01T07:47:01.037Z,19.80
2022-08-01T07:49:28.255Z,20.00
2022-08-01T07:52:13.705Z,20.20
2022-08-01T07:54:40.796Z,20.30
2022-08-01T07:57:08.230Z,20.50
2022-08-01T07:59:35.440Z,20.40
2022-08-01T08:02:02.827Z,20.50
2022-08-01T08:04:30.097Z,20.60
2022-08-01T08:06:57.064Z,20.80
2022-08-01T08:09:24.180Z,20.80
2022-08-01T08:11:51.197Z,21.00
2022-08-01T08:14:18.251Z,21.10
2022-08-01T08:16:45.445Z,21.10
2022-08-01T08:19:13.122Z,21.20
2022-08-01T08:21:40.131Z,21.30
2022-08-01T08:24:26.514Z,21.40
2022-08-01T08:26:59.427Z,21.60
2022-08-01T08:29:28.290Z,21.70
2022-08-01T08:31:58.715Z,21.80
2022-08-01T08:34:28.171Z,21.90
2022-08-01T08:36:57.235Z,22.00
2022-08-01T08:39:26.473Z,22.10
2022-08-01T08:41:53.603Z,22.30
2022-08-01T08:44:23.929Z,22.40
2022-08-01T08:46:52.478Z,22.60
2022-08-01T08:49:26.793Z,22.80
2022-08-01T08:51:58.694Z,23.00
2022-08-01T08:54:30.824Z,23.30
2022-08-01T08:57:00.298Z,23.60
2022-08-01T08:59:28.590Z,23.80
2022-08-01T09:01:55.919Z,23.90
2022-08-01T09:04:26.646Z,24.00
2022-08-01T09:06:54.850Z,24.20
2022-08-01T09:09:21.892Z,24.40
2022-08-01T09:11:56.758Z,24.50
2022-08-01T09:14:27.223Z,24.70
2022-08-01T09:17:03.764Z,24.90
2022-08-01T09:19:39.106Z,25.10
2022-08-01T09:22:11.276Z,25.40
2022-08-01T09:24:40.361Z,25.60
2022-08-01T09:27:22.792Z,25.70
2022-08-01T09:30:01.900Z,25.80
2022-08-01T09:32:35.936Z,25.90
2022-08-01T09:35:31.578Z,26.00
2022-08-01T09:38:24.612Z,26.10
2022-08-01T09:40:58.923Z,26.30
2022-08-01T09:43:31.695Z,26.30
2022-08-01T09:46:00.178Z,26.50
2022-08-01T09:48:29.823Z,26.60
2022-08-01T09:51:04.661Z,26.60
2022-08-01T09:53:51.095Z,26.60
2022-08-01T09:56:21.696Z,26.60
2022-08-01T09:59:00.325Z,26.70
2022-08-01T10:01:37.144Z,26.90
2022-08-01T10:04:17.402Z,26.70
2022-08-01T10:06:50.605Z,26.60
2022-08-01T10:09:39.961Z,26.50
2022-08-01T10:12:09.212Z,26.70
2022-08-01T10:14:46.245Z,26.90
2022-08-01T10:17:18.090Z,26.90
2022-08-01T10:19:46.434Z,27.00
2022-08-01T10:22:17.683Z,27.00
2022-08-01T10:24:48.891Z,27.10
2022-08-01T10:27:24.357Z,27.40
2022-08-01T10:30:14.011Z,27.60
2022-08-01T10:32:50.618Z,27.70
2022-08-01T10:35:45.733Z,27.90
2022-08-01T10:38:13.479Z,27.80
2022-08-01T10:40:43.027Z,28.00
2022-08-01T10:43:21.240Z,28.00
2022-08-01T10:45:48.984Z,27.90
2022-08-01T10:48:23.517Z,27.90
2022-08-01T10:50:55.098Z,27.80
2022-08-01T10:53:31.716Z,27.80
2022-08-01T10:56:15.060Z,27.90
2022-08-01T10:58:45.436Z,28.00
2022-08-01T11:01:33.384Z,27.90
2022-08-01T11:04:15.747Z,27.70
2022-08-01T11:06:53.632Z,27.80
2022-08-01T11:10:04.756Z,27.80
2022-08-01T11:12:44.216Z,27.80
2022-08-01T11:15:11.297Z,27.70
2022-08-01T11:17:45.258Z,27.80
2022-08-01T11:20:17.301Z,28.00
2022-08-01T11:23:03.583Z,28.20
2022-08-01T11:26:06.673Z,28.50
2022-08-01T11:28:34.800Z,28.70
2022-08-01T11:31:10.951Z,28.90
2022-08-01T11:33:48.826Z,29.00
2022-08-01T11:36:36.897Z,29.00
2022-08-01T11:39:13.460Z,29.00
2022-08-01T11:41:42.360Z,28.90
2022-08-01T11:44:18.404Z,28.90
2022-08-01T11:46:51.692Z,29.00
2022-08-01T11:49:38.567Z,29.20
2022-08-01T11:52:12.409Z,29.30
2022-08-01T11:54:40.555Z,29.20
2022-08-01T11:57:38.325Z,29.30
2022-08-01T12:00:15.006Z,29.20
2022-08-01T12:02:42.747Z,29.20
2022-08-01T12:05:15.536Z,29.20
2022-08-01T12:07:44.316Z,29.20
2022-08-01T12:10:19.499Z,29.30
2022-08-01T12:12:55.078Z,29.40
2022-08-01T12:15:25.111Z,29.40
2022-08-01T12:17:59.540Z,29.40
2022-08-01T12:20:32.742Z,29.30
2022-08-01T12:23:09.075Z,29.30
2022-08-01T12:25:37.391Z,29.30
2022-08-01T12:28:06.512Z,29.20
2022-08-01T12:30:36.577Z,29.10
2022-08-01T12:33:11.561Z,29.20
2022-08-01T12:35:41.855Z,29.10
2022-08-01T12:38:24.093Z,29.20
2022-08-01T12:40:53.119Z,29.20
2022-08-01T12:43:28.208Z,29.20
2022-08-01T12:45:58.871Z,29.10
2022-08-01T12:48:27.309Z,29.20
2022-08-01T12:50:55.103Z,29.20
2022-08-01T12:53:22.727Z,29.30
2022-08-01T12:55:59.221Z,29.30
2022-08-01T12:58:34.395Z,29.30
2022-08-01T13:01:10.857Z,29.10
2022-08-01T13:03:38.484Z,29.20
2022-08-01T13:06:17.467Z,29.40
2022-08-01T13:08:46.079Z,29.60
2022-08-01T13:11:15.801Z,29.70
2022-08-01T13:13:48.970Z,29.60
2022-08-01T13:16:30.396Z,29.60
2022-08-01T13:19:01.783Z,29.40
2022-08-01T13:21:52.061Z,29.40
2022-08-01T13:24:28.139Z,29.30
2022-08-01T13:27:02.262Z,29.30
2022-08-01T13:29:34.219Z,29.20
2022-08-01T13:32:28.975Z,29.20
2022-08-01T13:35:23.887Z,29.30
2022-08-01T13:37:51.408Z,29.30
2022-08-01T13:40:27.381Z,29.20
2022-08-01T13:42:56.703Z,29.20
2022-08-01T13:45:24.405Z,29.20
2022-08-01T13:48:11.673Z,29.30
2022-08-01T13:50:40.296Z,29.30
2022-08-01T13:53:08.240Z,29.30
2022-08-01T13:55:35.730Z,29.30
2022-08-01T13:58:03.864Z,29.20
2022-08-01T14:00:31.147Z,29.10
2022-08-01T14:02:58.120Z,29.00
2022-08-01T14:05:25.161Z,28.90
2022-08-01T14:07:56.480Z,28.90
2022-08-01T14:10:29.240Z,28.90
2022-08-01T14:12:59.701Z,29.00
2022-08-01T14:15:37.473Z,28.90
2022-08-01T14:18:09.632Z,29.10
2022-08-01T14:20:38.805Z,29.30
2022-08-01T14:23:08.530Z,29.40
2022-08-01T14:26:00.560Z,29.40
2022-08-01T14:28:29.183Z,29.50
2022-08-01T14:30:57.156Z,29.60
2022-08-01T14:33:24.351Z,29.60
2022-08-01T14:36:05.089Z,29.50
2022-08-01T14:38:38.417Z,29.60
2022-08-01T14:41:05.481Z,29.80
2022-08-01T14:43:35.276Z,29.80
2022-08-01T14:46:04.691Z,29.70
2022-08-01T14:48:32.703Z,29.70
2022-08-01T14:51:03.566Z,29.60
2022-08-01T14:53:31.413Z,29.50
2022-08-01T14:56:01.756Z,29.40
2022-08-01T14:58:28.683Z,29.40
2022-08-01T15:00:58.863Z,29.40
2022-08-01T15:03:26.878Z,29.30
2022-08-01T15:05:53.853Z,29.30
2022-08-01T15:08:20.929Z,29.30
2022-08-01T15:10:47.957Z,29.40
2022-08-01T15:13:15.006Z,29.20
2022-08-01T15:15:42.014Z,29.20
2022-08-01T15:18:09.146Z,29.30
2022-08-01T15:20:36.086Z,29.40
2022-08-01T15:23:03.036Z,29.30
2022-08-01T15:25:40.311Z,29.30
2022-08-01T15:28:10.640Z,29.30
2022-08-01T15:30:38.239Z,29.30
2022-08-01T15:33:05.861Z,29.30
2022-08-01T15:35:33.321Z,29.30
2022-08-01T15:38:00.561Z,29.20
2022-08-01T15:40:29.532Z,29.20
2022-08-01T15:43:00.231Z,28.80
2022-08-01T15:48:14.740Z,28.50
2022-08-01T15:50:41.808Z,28.40
2022-08-01T15:53:08.881Z,28.40
2022-08-01T15:55:39.804Z,28.40
2022-08-01T15:58:07.368Z,28.50
2022-08-01T16:00:38.804Z,28.40
2022-08-01T16:03:07.904Z,28.30
2022-08-01T16:05:42.549Z,28.30
2022-08-01T16:08:11.997Z,28.30
2022-08-01T16:10:39.320Z,28.30
2022-08-01T16:13:07.548Z,28.20
2022-08-01T16:15:37.278Z,28.30
2022-08-01T16:18:09.204Z,28.20
2022-08-01T16:20:38.288Z,28.20
2022-08-01T16:23:07.571Z,28.20
2022-08-01T16:25:34.908Z,28.20
2022-08-01T16:28:02.174Z,28.20
2022-08-01T16:30:29.185Z,28.20
2022-08-01T16:33:00.108Z,28.20
2022-08-01T16:35:35.891Z,28.10
2022-08-01T16:38:04.918Z,28.00
2022-08-01T16:40:46.318Z,27.90
2022-08-01T16:43:16.098Z,27.90
2022-08-01T16:45:43.824Z,27.80
2022-08-01T16:48:16.180Z,27.70
2022-08-01T16:50:43.608Z,27.60
2022-08-01T16:53:12.001Z,27.40
2022-08-01T16:55:42.603Z,27.40
2022-08-01T16:58:19.791Z,27.20
2022-08-01T17:00:57.086Z,27.20
2022-08-01T17:03:52.721Z,27.10
2022-08-01T17:06:13.173Z,27.20
2022-08-01T17:08:46.484Z,27.10
2022-08-01T17:11:14.932Z,27.10
2022-08-01T17:13:42.387Z,27.10
2022-08-01T17:16:10.060Z,27.10
2022-08-01T17:18:37.303Z,27.00
2022-08-01T17:21:04.439Z,26.90
2022-08-01T17:23:32.009Z,26.80
2022-08-01T17:25:59.699Z,26.70
2022-08-01T17:28:27.495Z,26.60
2022-08-01T17:30:54.524Z,26.60
2022-08-01T17:33:21.574Z,26.60
2022-08-01T17:35:48.843Z,26.40
2022-08-01T17:38:16.045Z,26.40
2022-08-01T17:40:44.372Z,26.30
2022-08-01T17:43:11.480Z,26.30
2022-08-01T17:45:50.936Z,26.30
2022-08-01T17:48:19.449Z,26.20
2022-08-01T17:50:47.671Z,26.30
2022-08-01T17:53:21.192Z,26.20
2022-08-01T17:55:54.422Z,26.00
2022-08-01T17:58:45.041Z,25.90
2022-08-01T18:01:16.930Z,25.90
2022-08-01T18:03:44.547Z,25.90
2022-08-01T18:06:14.158Z,25.90
2022-08-01T18:08:42.063Z,25.90
2022-08-01T18:11:09.568Z,25.80
2022-08-01T18:13:40.738Z,25.60
2022-08-01T18:16:11.235Z,25.60
2022-08-01T18:18:39.238Z,25.30
2022-08-01T18:21:07.297Z,25.10
2022-08-01T18:23:35.243Z,24.90
2022-08-01T18:26:06.902Z,24.90
2022-08-01T18:28:41.664Z,24.70
2022-08-01T18:31:11.789Z,24.60
2022-08-01T18:33:39.248Z,24.70
2022-08-01T18:36:06.515Z,24.60
2022-08-01T18:38:38.952Z,24.60
2022-08-01T18:41:12.095Z,24.60
2022-08-01T18:43:39.180Z,24.50
2022-08-01T18:46:06.530Z,24.30
2022-08-01T18:48:33.524Z,24.30
2022-08-01T18:51:00.929Z,24.20
2022-08-01T18:53:28.367Z,24.10
2022-08-01T18:55:55.549Z,24.00
2022-08-01T18:58:22.582Z,24.10
2022-08-01T19:00:49.726Z,24.20
2022-08-01T19:03:16.916Z,23.90
2022-08-01T19:05:43.915Z,23.80
2022-08-01T19:08:11.687Z,23.70
2022-08-01T19:10:42.883Z,23.60
2022-08-01T19:13:10.062Z,23.50
2022-08-01T19:15:37.134Z,23.40
2022-08-01T19:18:04.563Z,23.30
2022-08-01T19:20:31.787Z,23.30
2022-08-01T19:22:59.015Z,23.40
2022-08-01T19:25:26.580Z,23.40
2022-08-01T19:27:56.364Z,23.30
2022-08-01T19:30:23.701Z,23.20
2022-08-01T19:32:52.349Z,23.20
2022-08-01T19:35:19.914Z,23.20
2022-08-01T19:37:52.632Z,23.10
2022-08-01T19:40:27.099Z,23.00
2022-08-01T19:42:56.428Z,22.90
2022-08-01T19:45:24.701Z,22.90
2022-08-01T19:47:56.853Z,22.90
2022-08-01T19:50:29.156Z,22.80
2022-08-01T19:52:57.633Z,22.70
2022-08-01T19:55:27.050Z,22.60
2022-08-01T19:58:24.619Z,22.50
2022-08-01T20:00:44.111Z,22.50
2022-08-01T20:03:14.985Z,22.30
2022-08-01T20:05:42.496Z,22.30
2022-08-01T20:08:09.872Z,22.30
2022-08-01T20:10:38.465Z,22.20
2022-08-01T20:13:06.668Z,22.10
2022-08-01T20:15:33.686Z,22.00
2022-08-01T20:18:01.159Z,22.00
2022-08-01T20:20:28.297Z,21.90
2022-08-01T20:22:57.629Z,22.00
2022-08-01T20:25:33.535Z,21.90
2022-08-01T20:28:10.462Z,21.80
2022-08-01T20:30:39.386Z,21.70
2022-08-01T20:33:08.514Z,21.70
2022-08-01T20:35:51.092Z,21.60
2022-08-01T20:38:27.411Z,21.60
2022-08-01T20:40:58.800Z,21.50
2022-08-01T20:43:27.808Z,21.50
2022-08-01T20:45:56.352Z,21.50
2022-08-01T20:48:26.707Z,21.40
2022-08-01T20:51:15.729Z,21.40
2022-08-01T20:53:46.869Z,21.40
2022-08-01T20:56:20.933Z,21.40
2022-08-01T20:59:10.176Z,21.30
2022-08-01T21:01:49.642Z,21.30
2022-08-01T21:04:31.568Z,21.30
2022-08-01T21:07:03.715Z,21.30
2022-08-01T21:09:39.150Z,21.30
2022-08-01T21:12:11.959Z,21.20
2022-08-01T21:14:50.468Z,21.00
2022-08-01T21:17:34.083Z,21.10
2022-08-01T21:20:07.526Z,21.10
2022-08-01T21:22:58.638Z,21.00
2022-08-01T21:25:31.250Z,21.00
2022-08-01T21:28:00.184Z,20.80
2022-08-01T21:30:29.733Z,20.70
2022-08-01T21:32:57.435Z,20.70
2022-08-01T21:35:26.350Z,20.80
2022-08-01T21:37:54.042Z,20.80
2022-08-01T21:40:23.209Z,20.80
2022-08-01T21:42:52.969Z,20.80
2022-08-01T21:45:22.867Z,20.70
2022-08-01T21:47:50.872Z,20.70
2022-08-01T21:50:17.996Z,20.50
2022-08-01T21:52:53.340Z,20.50
2022-08-01T21:55:36.578Z,20.50
2022-08-01T21:58:16.894Z,20.50
2022-08-01T22:00:51.189Z,20.50
2022-08-01T22:03:46.490Z,20.30
2022-08-01T22:06:16.069Z,20.30
2022-08-01T22:08:51.836Z,20.30
2022-08-01T22:11:26.013Z,20.30
2022-08-01T22:13:55.169Z,20.40
2022-08-01T22:16:26.404Z,20.20
2022-08-01T22:18:54.165Z,20.20
2022-08-01T22:21:21.502Z,20.20
2022-08-01T22:23:52.314Z,20.10
2022-08-01T22:26:25.744Z,20.00
2022-08-01T22:28:55.857Z,19.90
2022-08-01T22:31:22.866Z,20.00
2022-08-01T22:33:50.512Z,20.00
2022-08-01T22:36:17.644Z,20.00
2022-08-01T22:38:44.672Z,20.00
2022-08-01T22:41:17.536Z,19.90
2022-08-01T22:43:50.544Z,19.90
2022-08-01T22:46:36.541Z,20.00
2022-08-01T22:49:23.539Z,19.90
2022-08-01T22:52:03.147Z,19.90
2022-08-01T22:54:37.136Z,19.90
2022-08-01T22:57:10.557Z,19.90
2022-08-01T23:00:00.164Z,19.80
2022-08-01T23:02:30.877Z,19.80
2022-08-01T23:05:04.953Z,19.80
2022-08-01T23:07:43.887Z,19.60
2022-08-01T23:10:10.940Z,19.50
2022-08-01T23:12:39.654Z,19.50
2022-08-01T23:15:08.158Z,19.50
2022-08-01T23:17:35.756Z,19.50
2022-08-01T23:20:06.974Z,19.60
2022-08-01T23:22:36.350Z,19.60
2022-08-01T23:25:10.836Z,19.70
2022-08-01T23:27:51.748Z,19.60
2022-08-01T23:30:32.930Z,19.60
2022-08-01T23:33:00.287Z,19.60
2022-08-01T23:35:27.904Z,19.50
2022-08-01T23:37:58.773Z,19.30
2022-08-01T23:40:32.262Z,19.40
2022-08-01T23:43:00.734Z,19.50
2022-08-01T23:45:28.447Z,19.50
2022-08-01T23:48:15.514Z,19.50
2022-08-01T23:50:48.418Z,19.30
2022-08-01T23:53:15.585Z,19.30
2022-08-01T23:55:43.289Z,19.30
2022-08-01T23:58:11.742Z,19.40
